Time;durP1;ratioP1;P1;durP2;ratioP2;P2;SDS_P1;SDS_P2;PMS_P1;PMS_P2;Temp;Humidity;BMP_temperature;BMP_pressure;BME280_temperature;BME280_humidity;BME280_pressure;Samples;Min_cycle;Max_cycle;Signal;HPM_P1;HPM_P2
2021/05/04 00:00:40;;;;;;;5.30;4.22;;;5.80;65.80;;;;;;5044825;28;20053;-67
2021/05/04 00:03:05;;;;;;;5.65;3.83;;;5.80;66.00;;;;;;5042032;28;20469;-68
2021/05/04 00:05:31;;;;;;;7.43;4.13;;;5.80;65.90;;;;;;5047750;28;20465;-67
2021/05/04 00:07:56;;;;;;;6.97;3.97;;;5.80;66.10;;;;;;5041281;28;20950;-67
2021/05/04 00:10:22;;;;;;;5.68;3.65;;;5.80;66.20;;;;;;5030174;28;20134;-67
2021/05/04 00:12:48;;;;;;;8.35;4.20;;;5.80;66.30;;;;;;5050133;28;20122;-68
2021/05/04 00:15:14;;;;;;;4.47;3.75;;;5.80;66.30;;;;;;5030993;28;20535;-67
2021/05/04 00:17:39;;;;;;;7.70;3.88;;;5.80;66.30;;;;;;5045274;28;20028;-67
2021/05/04 00:20:06;;;;;;;5.32;3.50;;;5.80;66.30;;;;;;5047615;28;20091;-67
2021/05/04 00:22:31;;;;;;;5.22;3.95;;;5.80;66.50;;;;;;5048505;28;20017;-67
2021/05/04 00:24:57;;;;;;;6.43;3.90;;;5.80;66.60;;;;;;5047966;28;20110;-67
2021/05/04 00:27:22;;;;;;;5.30;3.63;;;5.80;66.50;;;;;;5047496;28;20103;-67
2021/05/04 00:29:48;;;;;;;5.07;3.90;;;5.80;66.60;;;;;;5049857;28;20037;-67
2021/05/04 00:32:14;;;;;;;5.13;3.67;;;5.80;66.80;;;;;;5048843;28;20060;-67
2021/05/04 00:34:39;;;;;;;6.30;3.67;;;5.80;66.70;;;;;;5048953;28;20409;-67
2021/05/04 00:37:05;;;;;;;4.38;3.58;;;5.90;66.80;;;;;;5048872;28;20401;-68
2021/05/04 00:39:35;;;;;;;4.85;3.50;;;5.90;66.90;;;;;;5048775;28;20104;-67
2021/05/04 00:42:01;;;;;;;5.28;3.03;;;5.90;66.90;;;;;;5047897;28;20040;-67
2021/05/04 00:44:27;;;;;;;6.18;3.10;;;5.90;66.90;;;;;;5046074;28;20450;-67
2021/05/04 00:46:52;;;;;;;3.78;3.35;;;5.90;66.90;;;;;;5036701;28;20039;-67
2021/05/04 00:49:18;;;;;;;3.33;3.03;;;5.90;66.90;;;;;;5048097;28;20033;-67
2021/05/04 00:51:44;;;;;;;3.88;3.35;;;5.90;66.80;;;;;;5048252;28;20029;-67
2021/05/04 00:54:10;;;;;;;3.60;3.00;;;6.00;66.80;;;;;;5045610;28;20096;-67
2021/05/04 00:56:38;;;;;;;4.82;3.50;;;6.00;66.80;;;;;;5047496;28;20025;-67
2021/05/04 00:59:05;;;;;;;3.55;3.25;;;6.00;66.70;;;;;;5050029;28;20474;-67
2021/05/04 01:01:31;;;;;;;3.85;3.10;;;6.00;66.70;;;;;;5044953;28;20067;-67
2021/05/04 01:03:58;;;;;;;4.30;3.30;;;6.00;66.70;;;;;;5045654;28;20025;-67
2021/05/04 01:06:23;;;;;;;3.78;2.83;;;6.00;66.80;;;;;;5045922;28;20033;-67
2021/05/04 01:08:49;;;;;;;4.13;3.28;;;6.00;66.70;;;;;;5047641;28;20043;-68
2021/05/04 01:11:15;;;;;;;4.18;3.30;;;6.10;66.80;;;;;;5046714;28;20033;-67
2021/05/04 01:13:44;;;;;;;3.42;3.13;;;6.10;66.80;;;;;;5032032;28;20069;-67
2021/05/04 01:16:09;;;;;;;3.50;2.97;;;6.10;66.90;;;;;;5045228;28;20385;-67
2021/05/04 01:18:35;;;;;;;4.15;3.20;;;6.10;67.00;;;;;;5041772;28;20039;-68
2021/05/04 01:21:00;;;;;;;4.72;3.60;;;6.10;67.00;;;;;;5043633;28;20033;-67
2021/05/04 01:23:26;;;;;;;5.82;3.65;;;6.10;67.00;;;;;;5047401;28;20092;-68
2021/05/04 01:25:51;;;;;;;4.63;3.25;;;6.10;67.00;;;;;;5045742;28;20025;-67
2021/05/04 01:28:17;;;;;;;6.03;3.03;;;6.10;67.10;;;;;;5050561;28;20041;-67
2021/05/04 01:30:43;;;;;;;4.95;3.33;;;6.10;67.00;;;;;;5051286;28;20086;-67
2021/05/04 01:33:08;;;;;;;3.63;2.97;;;6.10;67.10;;;;;;5050870;28;20029;-67
2021/05/04 01:35:34;;;;;;;4.38;2.90;;;6.00;67.10;;;;;;5048111;28;20036;-67
2021/05/04 01:38:01;;;;;;;6.85;3.47;;;6.00;67.10;;;;;;5051057;28;20027;-67
2021/05/04 01:40:27;;;;;;;5.00;3.42;;;6.00;67.10;;;;;;5050152;28;20032;-67
2021/05/04 01:42:53;;;;;;;5.82;3.22;;;6.00;67.10;;;;;;5051281;28;20028;-68
2021/05/04 01:45:18;;;;;;;4.57;3.38;;;6.00;67.20;;;;;;5049852;28;20025;-68
2021/05/04 01:47:44;;;;;;;4.60;3.42;;;6.00;67.20;;;;;;5052391;28;20035;-67
2021/05/04 01:50:11;;;;;;;5.15;3.67;;;6.00;67.20;;;;;;5051365;28;20163;-67
2021/05/04 01:52:36;;;;;;;4.18;3.38;;;6.00;67.20;;;;;;5049980;28;20469;-68
2021/05/04 01:55:04;;;;;;;3.88;3.45;;;6.00;67.20;;;;;;5051236;28;20032;-67
2021/05/04 01:57:29;;;;;;;4.60;3.42;;;6.00;67.30;;;;;;5049743;28;20044;-67
2021/05/04 01:59:55;;;;;;;4.50;3.42;;;6.00;67.40;;;;;;5051795;28;20025;-67
2021/05/04 02:02:20;;;;;;;4.50;3.22;;;6.10;67.40;;;;;;5051313;28;20029;-68
2021/05/04 02:04:46;;;;;;;4.18;3.78;;;6.10;67.40;;;;;;5051054;28;20045;-67
2021/05/04 02:07:11;;;;;;;4.05;3.38;;;6.00;67.30;;;;;;5050119;28;20938;-68
2021/05/04 02:09:37;;;;;;;4.88;3.75;;;6.00;67.40;;;;;;5049618;28;20024;-67
2021/05/04 02:12:03;;;;;;;4.40;3.50;;;6.00;67.40;;;;;;5051991;28;20029;-67
2021/05/04 02:14:29;;;;;;;4.57;3.60;;;6.00;67.30;;;;;;5050439;28;20041;-67
2021/05/04 02:16:54;;;;;;;3.53;3.22;;;6.00;67.30;;;;;;5052181;28;20127;-67
2021/05/04 02:19:21;;;;;;;5.15;3.63;;;6.00;67.30;;;;;;5048909;28;20123;-67
2021/05/04 02:21:46;;;;;;;4.30;3.60;;;6.00;67.40;;;;;;5031386;28;20167;-67
2021/05/04 02:24:12;;;;;;;3.38;3.08;;;5.90;67.30;;;;;;5049955;28;20769;-67
2021/05/04 02:26:37;;;;;;;5.47;3.42;;;5.90;67.40;;;;;;5053240;28;20436;-68
2021/05/04 02:29:03;;;;;;;5.63;3.58;;;5.90;67.40;;;;;;5055908;28;20089;-67
2021/05/04 02:31:29;;;;;;;5.07;3.47;;;5.90;67.40;;;;;;5051153;28;20025;-68
2021/05/04 02:33:54;;;;;;;4.22;3.20;;;5.90;67.40;;;;;;5047691;28;20028;-67
2021/05/04 02:36:20;;;;;;;4.63;3.70;;;6.00;67.50;;;;;;5050072;28;20055;-67
2021/05/04 02:38:45;;;;;;;3.88;3.25;;;6.00;67.50;;;;;;5051077;28;20025;-67
2021/05/04 02:41:11;;;;;;;3.47;3.17;;;6.00;67.40;;;;;;5049125;28;20044;-67
2021/05/04 02:43:37;;;;;;;6.38;3.58;;;6.00;67.40;;;;;;5051095;28;20109;-68
2021/05/04 02:46:06;;;;;;;3.80;3.22;;;6.00;67.40;;;;;;5048139;28;20489;-67
2021/05/04 02:48:43;;;;;;;3.78;3.22;;;6.00;67.40;;;;;;5049506;28;20116;-67
2021/05/04 02:51:11;;;;;;;4.57;3.03;;;6.00;67.50;;;;;;5050419;28;20276;-67
2021/05/04 02:53:38;;;;;;;3.67;3.10;;;6.10;67.50;;;;;;5050513;28;20025;-67
2021/05/04 02:56:06;;;;;;;3.70;3.35;;;6.10;67.50;;;;;;5042530;28;20100;-67
2021/05/04 02:58:32;;;;;;;3.50;3.20;;;6.10;67.50;;;;;;5049919;28;20036;-67
2021/05/04 03:00:57;;;;;;;3.35;2.92;;;6.20;67.50;;;;;;5047475;28;20082;-68
2021/05/04 03:03:24;;;;;;;4.57;2.95;;;6.20;67.40;;;;;;5050778;28;20588;-68
2021/05/04 03:05:50;;;;;;;4.95;3.28;;;6.30;67.50;;;;;;5048682;28;20429;-67
2021/05/04 03:08:16;;;;;;;3.40;3.10;;;6.20;67.40;;;;;;5050161;28;20036;-67
2021/05/04 03:10:42;;;;;;;3.83;2.83;;;6.30;67.50;;;;;;5051520;28;20021;-68
2021/05/04 03:13:07;;;;;;;5.63;3.20;;;6.40;67.40;;;;;;5049664;28;20021;-68
2021/05/04 03:15:33;;;;;;;3.47;3.10;;;6.40;67.40;;;;;;5047757;28;20083;-67
2021/05/04 03:18:00;;;;;;;3.08;2.78;;;6.40;67.30;;;;;;5053881;28;20104;-67
2021/05/04 03:20:26;;;;;;;5.25;3.20;;;6.50;67.30;;;;;;5053508;28;20028;-68
2021/05/04 03:22:52;;;;;;;4.03;2.92;;;6.50;67.20;;;;;;5048096;28;20647;-67
2021/05/04 03:25:17;;;;;;;5.28;3.10;;;6.60;67.20;;;;;;5073066;22;20067;-71
2021/05/04 03:27:43;;;;;;;5.13;3.20;;;6.70;67.80;;;;;;5076498;28;20310;-71
2021/05/04 03:30:09;;;;;;;3.28;2.92;;;6.70;67.10;;;;;;5070346;28;20056;-73
2021/05/04 03:32:35;;;;;;;4.65;3.30;;;6.70;67.10;;;;;;5051337;28;20480;-72
2021/05/04 03:35:01;;;;;;;3.00;2.80;;;6.70;67.00;;;;;;5051993;28;20036;-73
2021/05/04 03:37:27;;;;;;;3.50;2.80;;;6.80;67.10;;;;;;5069893;28;20355;-73
2021/05/04 03:39:52;;;;;;;4.03;3.20;;;6.80;67.00;;;;;;5071020;28;20451;-72
2021/05/04 03:42:18;;;;;;;4.82;3.10;;;6.80;67.00;;;;;;5069659;28;20369;-72
2021/05/04 03:44:43;;;;;;;3.00;2.63;;;6.90;67.50;;;;;;5069226;28;20464;-72
2021/05/04 03:47:09;;;;;;;4.78;2.90;;;6.90;66.90;;;;;;5069452;28;20503;-71
2021/05/04 03:49:34;;;;;;;2.97;2.50;;;7.00;66.90;;;;;;5071448;28;20649;-73
2021/05/04 03:52:00;;;;;;;4.40;2.65;;;7.00;66.90;;;;;;5071528;28;20021;-72
2021/05/04 03:54:26;;;;;;;4.65;2.60;;;7.00;66.80;;;;;;5072045;28;20484;-72
2021/05/04 03:56:51;;;;;;;4.82;3.03;;;7.00;66.80;;;;;;5073018;28;20035;-73
2021/05/04 03:59:17;;;;;;;4.60;2.50;;;7.10;66.80;;;;;;5072057;28;20020;-71
2021/05/04 04:01:43;;;;;;;3.30;2.67;;;7.10;66.80;;;;;;5071452;28;20036;-72
2021/05/04 04:04:08;;;;;;;4.43;2.67;;;7.20;66.90;;;;;;5076502;28;20023;-71
2021/05/04 04:06:34;;;;;;;3.03;2.70;;;7.20;66.80;;;;;;5069363;28;20502;-72
2021/05/04 04:08:59;;;;;;;3.83;2.55;;;7.20;66.80;;;;;;5068507;28;20495;-72
2021/05/04 04:11:25;;;;;;;3.03;2.50;;;7.30;66.80;;;;;;5050326;28;20713;-72
2021/05/04 04:13:51;;;;;;;4.07;2.42;;;7.30;66.70;;;;;;5068732;28;20379;-72
2021/05/04 04:16:16;;;;;;;5.18;2.17;;;7.30;66.70;;;;;;5068239;28;20564;-71
2021/05/04 04:18:42;;;;;;;4.30;2.25;;;7.40;66.70;;;;;;5050601;28;20408;-72
2021/05/04 04:21:07;;;;;;;3.10;1.95;;;7.50;66.60;;;;;;5053810;28;20100;-71
2021/05/04 04:23:33;;;;;;;5.53;2.00;;;7.60;66.60;;;;;;5068860;28;20024;-72
2021/05/04 04:25:59;;;;;;;1.95;1.80;;;7.60;66.40;;;;;;5065743;28;20153;-71
2021/05/04 04:28:24;;;;;;;3.53;2.10;;;7.70;66.30;;;;;;5067759;28;20524;-74
2021/05/04 04:30:50;;;;;;;6.15;2.00;;;7.80;66.30;;;;;;5067416;28;20037;-73
2021/05/04 04:33:22;;;;;;;4.25;1.90;;;7.90;66.10;;;;;;5066521;28;20031;-72
2021/05/04 04:35:48;;;;;;;5.95;1.90;;;8.00;65.90;;;;;;5047756;28;20028;-71
2021/05/04 04:38:13;;;;;;;2.10;1.90;;;8.10;65.90;;;;;;5068401;28;20036;-71
2021/05/04 04:40:39;;;;;;;2.30;1.90;;;8.10;65.70;;;;;;5068051;28;20036;-73
2021/05/04 04:43:04;;;;;;;4.07;1.90;;;8.20;65.60;;;;;;5065926;28;20035;-72
2021/05/04 04:45:30;;;;;;;2.33;1.85;;;8.30;65.50;;;;;;5067744;28;20073;-72
2021/05/04 04:47:55;;;;;;;1.98;1.83;;;8.40;65.40;;;;;;5071126;28;20105;-72
2021/05/04 04:50:21;;;;;;;1.85;1.73;;;8.40;65.20;;;;;;5068199;28;20032;-73
2021/05/04 04:52:47;;;;;;;2.63;1.75;;;8.50;65.10;;;;;;5069499;28;20024;-71
2021/05/04 04:55:12;;;;;;;2.10;1.70;;;8.60;65.00;;;;;;5070316;28;20673;-71
2021/05/04 04:57:38;;;;;;;1.92;1.80;;;8.70;64.90;;;;;;5068969;28;20081;-71
2021/05/04 05:00:04;;;;;;;1.70;1.55;;;8.70;64.70;;;;;;5050466;28;20039;-72
2021/05/04 05:02:30;;;;;;;3.58;1.85;;;8.70;64.70;;;;;;5065281;28;20337;-73
2021/05/04 05:04:55;;;;;;;1.73;1.63;;;8.70;64.60;;;;;;5067804;28;20024;-73
2021/05/04 05:07:21;;;;;;;3.15;1.85;;;8.70;64.50;;;;;;5067082;28;20024;-72
2021/05/04 05:09:46;;;;;;;1.73;1.50;;;8.80;64.40;;;;;;5068570;28;20500;-72
2021/05/04 05:12:13;;;;;;;2.10;1.90;;;8.80;64.20;;;;;;5048300;28;20119;-72
2021/05/04 05:14:40;;;;;;;1.92;1.55;;;8.90;64.20;;;;;;5049732;28;20028;-72
2021/05/04 05:17:06;;;;;;;3.10;1.70;;;8.90;64.10;;;;;;5067225;28;20357;-71
2021/05/04 05:19:32;;;;;;;4.53;1.75;;;8.90;64.00;;;;;;5067383;28;20117;-71
2021/05/04 05:21:59;;;;;;;1.70;1.52;;;8.90;63.90;;;;;;5068102;28;20036;-73
2021/05/04 05:24:25;;;;;;;1.70;1.60;;;9.00;63.90;;;;;;5062870;28;20024;-72
2021/05/04 05:26:51;;;;;;;1.63;1.52;;;9.00;63.80;;;;;;5066996;28;20059;-72
2021/05/04 05:29:17;;;;;;;3.00;2.10;;;9.10;63.80;;;;;;5066742;28;20092;-71
2021/05/04 05:31:43;;;;;;;6.00;2.00;;;9.10;63.70;;;;;;5067169;28;20106;-71
2021/05/04 05:34:08;;;;;;;2.75;1.70;;;9.20;63.60;;;;;;5042004;28;20369;-74
2021/05/04 05:36:34;;;;;;;1.83;1.73;;;9.20;63.60;;;;;;5068105;28;20031;-73
2021/05/04 05:39:00;;;;;;;4.65;1.80;;;9.20;63.60;;;;;;5068804;28;20104;-72
2021/05/04 05:41:26;;;;;;;2.28;1.75;;;9.20;63.50;;;;;;5066350;28;20036;-72
2021/05/04 05:43:51;;;;;;;2.75;1.70;;;9.20;63.40;;;;;;5047861;28;20036;-72
2021/05/04 05:46:17;;;;;;;3.90;1.63;;;9.30;63.40;;;;;;5068395;28;20108;-73
2021/05/04 05:48:44;;;;;;;3.97;1.77;;;9.40;63.40;;;;;;5069678;28;20392;-71
2021/05/04 05:51:10;;;;;;;2.00;1.90;;;9.40;63.20;;;;;;5068914;28;20500;-72
2021/05/04 05:53:36;;;;;;;3.53;2.08;;;9.50;63.30;;;;;;5067060;28;20027;-70
2021/05/04 05:56:02;;;;;;;3.28;1.80;;;9.60;63.10;;;;;;5067407;28;20507;-71
2021/05/04 05:58:27;;;;;;;4.53;1.70;;;9.70;63.00;;;;;;5069426;28;20037;-72
2021/05/04 06:00:55;;;;;;;1.95;1.80;;;9.90;62.80;;;;;;5068200;28;20456;-71
2021/05/04 06:03:22;;;;;;;3.22;1.63;;;10.10;62.50;;;;;;5068973;28;20108;-72
2021/05/04 06:05:49;;;;;;;6.70;1.88;;;10.20;62.20;;;;;;5063005;28;20563;-71
2021/05/04 06:08:14;;;;;;;2.63;1.85;;;10.30;62.00;;;;;;5066298;28;20119;-70
2021/05/04 06:10:40;;;;;;;1.85;1.65;;;10.40;61.70;;;;;;5068968;28;20207;-71
2021/05/04 06:13:07;;;;;;;2.95;2.05;;;10.60;61.60;;;;;;5049360;28;20025;-71
2021/05/04 06:15:34;;;;;;;2.40;1.70;;;10.70;61.40;;;;;;5067295;28;20369;-70
2021/05/04 06:17:59;;;;;;;2.75;1.70;;;10.70;61.20;;;;;;5066612;28;20020;-70
2021/05/04 06:20:25;;;;;;;2.08;1.58;;;10.80;61.00;;;;;;5052350;28;20082;-70
2021/05/04 06:22:50;;;;;;;1.50;1.40;;;10.90;60.80;;;;;;5069049;28;20036;-71
2021/05/04 06:25:17;;;;;;;3.95;1.67;;;11.00;60.60;;;;;;5072288;28;20089;-71
2021/05/04 06:27:43;;;;;;;1.52;1.42;;;11.10;60.40;;;;;;5053032;28;20033;-70
2021/05/04 06:30:11;;;;;;;3.28;1.50;;;11.10;60.30;;;;;;5072037;28;20034;-70
2021/05/04 06:32:37;;;;;;;1.65;1.55;;;11.20;60.20;;;;;;5071249;28;20826;-70
2021/05/04 06:35:03;;;;;;;1.55;1.45;;;11.20;60.00;;;;;;5071322;28;20020;-70
2021/05/04 06:37:29;;;;;;;2.38;1.30;;;11.30;59.90;;;;;;5054022;28;20384;-72
2021/05/04 06:39:54;;;;;;;2.20;1.60;;;11.30;59.80;;;;;;5053681;28;20027;-72
2021/05/04 06:42:20;;;;;;;2.40;1.67;;;11.30;59.60;;;;;;5054315;28;20032;-69
2021/05/04 06:44:46;;;;;;;1.65;1.42;;;11.40;59.50;;;;;;5071619;28;20036;-70
2021/05/04 06:47:11;;;;;;;1.52;1.40;;;11.40;59.30;;;;;;5072513;28;20025;-70
2021/05/04 06:49:37;;;;;;;4.32;1.42;;;11.50;59.30;;;;;;5072839;28;20024;-70
2021/05/04 06:52:04;;;;;;;1.30;1.20;;;11.50;59.20;;;;;;5067754;28;20047;-72
2021/05/04 06:54:29;;;;;;;2.28;1.30;;;11.50;59.00;;;;;;5070553;28;20023;-72
2021/05/04 06:56:55;;;;;;;2.40;1.42;;;11.60;59.00;;;;;;5072030;28;20115;-74
2021/05/04 06:59:21;;;;;;;2.10;1.33;;;11.60;59.00;;;;;;5054171;28;20557;-71
2021/05/04 07:01:46;;;;;;;1.63;1.52;;;11.60;59.00;;;;;;5053983;28;20032;-71
2021/05/04 07:04:14;;;;;;;2.70;1.27;;;11.70;59.00;;;;;;5070766;28;20028;-69
2021/05/04 07:06:40;;;;;;;1.58;1.48;;;11.70;58.70;;;;;;5071634;28;20395;-70
2021/05/04 07:09:06;;;;;;;1.42;1.30;;;11.80;58.50;;;;;;5063949;28;20033;-70
2021/05/04 07:11:34;;;;;;;2.13;1.42;;;11.80;58.40;;;;;;5072493;28;20024;-70
2021/05/04 07:14:02;;;;;;;1.55;1.45;;;11.90;58.20;;;;;;5070451;28;20017;-70
2021/05/04 07:16:28;;;;;;;2.22;1.20;;;11.90;58.30;;;;;;5070743;28;20142;-72
2021/05/04 07:18:53;;;;;;;1.65;1.40;;;12.00;58.00;;;;;;5071382;28;20048;-70
2021/05/04 07:21:19;;;;;;;2.28;1.42;;;12.00;57.90;;;;;;5071023;28;20644;-71
2021/05/04 07:23:44;;;;;;;1.48;1.20;;;12.10;57.70;;;;;;5071495;28;20035;-71
2021/05/04 07:26:13;;;;;;;1.92;1.25;;;12.20;57.40;;;;;;5067070;28;20198;-72
2021/05/04 07:28:38;;;;;;;1.92;1.30;;;12.30;57.40;;;;;;5049371;28;20032;-72
2021/05/04 07:31:04;;;;;;;2.78;1.20;;;12.30;57.40;;;;;;5070571;28;20034;-74
2021/05/04 07:33:30;;;;;;;3.25;1.20;;;12.40;57.30;;;;;;5053936;28;20032;-71
2021/05/04 07:35:55;;;;;;;1.98;1.20;;;12.40;57.00;;;;;;5069855;28;20031;-71
2021/05/04 07:38:21;;;;;;;2.05;1.40;;;12.50;57.00;;;;;;5052289;28;20112;-71
2021/05/04 07:40:47;;;;;;;1.10;1.00;;;12.60;56.70;;;;;;5071820;28;20032;-72
2021/05/04 07:43:12;;;;;;;1.48;1.30;;;12.60;56.50;;;;;;5071082;28;20028;-73
2021/05/04 07:45:38;;;;;;;2.67;1.23;;;12.60;56.20;;;;;;5070633;28;20039;-70
2021/05/04 07:48:06;;;;;;;1.50;1.30;;;12.70;56.20;;;;;;5070410;28;20388;-72
2021/05/04 07:50:33;;;;;;;2.60;1.30;;;12.70;56.00;;;;;;5071553;28;20020;-72
2021/05/04 07:52:58;;;;;;;1.45;1.10;;;12.80;56.00;;;;;;5067833;28;20396;-73
2021/05/04 07:55:25;;;;;;;2.00;0.98;;;12.90;56.00;;;;;;5070579;28;20036;-71
2021/05/04 07:57:51;;;;;;;2.10;1.25;;;13.00;55.80;;;;;;5071063;28;20031;-71
2021/05/04 08:00:17;;;;;;;1.35;1.10;;;13.10;55.50;;;;;;5070669;28;20020;-71
2021/05/04 08:02:42;;;;;;;1.50;1.10;;;13.20;55.40;;;;;;5068313;28;20032;-70
2021/05/04 08:05:09;;;;;;;1.17;1.05;;;13.30;55.30;;;;;;5070107;28;20477;-70
2021/05/04 08:07:35;;;;;;;1.60;1.15;;;13.40;55.00;;;;;;5067965;28;20710;-71
2021/05/04 08:10:01;;;;;;;2.45;1.30;;;13.50;54.90;;;;;;5070344;28;20028;-71
2021/05/04 08:12:26;;;;;;;3.15;1.30;;;13.60;54.80;;;;;;5054617;28;20384;-70
2021/05/04 08:14:53;;;;;;;3.65;1.35;;;13.70;54.70;;;;;;5075043;28;20385;-71
2021/05/04 08:17:20;;;;;;;2.15;1.27;;;13.80;54.00;;;;;;5052095;28;20077;-71
2021/05/04 08:19:46;;;;;;;1.52;1.30;;;13.90;53.90;;;;;;5070143;28;20032;-70
2021/05/04 08:22:13;;;;;;;1.73;1.10;;;14.00;53.50;;;;;;5053070;28;20430;-71
2021/05/04 08:24:38;;;;;;;1.48;1.05;;;14.00;53.70;;;;;;5050300;28;20579;-73
2021/05/04 08:27:05;;;;;;;2.10;1.02;;;14.00;53.50;;;;;;5065493;28;20036;-70
2021/05/04 08:29:31;;;;;;;2.35;1.15;;;14.10;53.70;;;;;;5069754;28;20028;-72
2021/05/04 08:31:57;;;;;;;3.40;1.15;;;14.10;53.40;;;;;;5070498;28;20056;-71
2021/05/04 08:34:23;;;;;;;2.22;1.40;;;14.10;53.10;;;;;;5050185;28;20071;-71
2021/05/04 08:36:49;;;;;;;1.77;1.00;;;14.20;53.20;;;;;;5069804;28;20474;-71
2021/05/04 08:39:15;;;;;;;1.20;1.00;;;14.20;52.90;;;;;;5070967;28;20021;-71
2021/05/04 08:41:46;;;;;;;3.42;1.20;;;14.30;52.90;;;;;;5065287;28;20776;-72
2021/05/04 08:44:21;;;;;;;1.95;1.38;;;14.40;53.00;;;;;;5069223;28;20073;-71
2021/05/04 08:46:49;;;;;;;2.47;1.00;;;14.60;52.60;;;;;;5052111;28;20029;-72
2021/05/04 08:49:16;;;;;;;1.75;0.90;;;14.80;52.70;;;;;;5052414;28;20081;-73
2021/05/04 08:51:44;;;;;;;5.40;1.98;;;15.10;52.30;;;;;;5052584;28;20108;-71
2021/05/04 08:54:10;;;;;;;3.17;1.30;;;15.40;52.00;;;;;;5069561;28;20440;-71
2021/05/04 08:56:35;;;;;;;1.05;0.88;;;15.80;51.30;;;;;;5069454;28;20059;-72
2021/05/04 08:59:03;;;;;;;4.47;1.20;;;16.20;50.90;;;;;;5070386;28;20031;-71
2021/05/04 09:01:28;;;;;;;3.55;1.00;;;16.20;50.90;;;;;;5052490;28;20081;-71
2021/05/04 09:04:00;;;;;;;3.08;1.02;;;16.30;50.90;;;;;;5068381;28;20032;-70
2021/05/04 09:06:32;;;;;;;2.28;1.02;;;16.50;50.50;;;;;;5070126;28;20066;-71
2021/05/04 09:09:20;;;;;;;6.43;1.20;;;16.40;49.80;;;;;;5062187;28;20024;-72
2021/05/04 09:12:05;;;;;;;2.22;1.02;;;16.50;49.50;;;;;;5070470;28;20028;-70
2021/05/04 09:14:55;;;;;;;1.35;1.10;;;16.60;50.00;;;;;;5050275;28;20025;-71
2021/05/04 09:17:37;;;;;;;1.27;1.00;;;16.50;49.50;;;;;;5052320;28;20631;-70
2021/05/04 09:23:08;;;;;;;0.98;0.90;;;16.70;48.80;;;;;;5035198;28;20162;-71
2021/05/04 09:25:38;;;;;;;2.95;1.00;;;16.60;49.00;;;;;;5132184;22;20044;-67
2021/05/04 09:28:09;;;;;;;1.02;0.93;;;16.50;48.30;;;;;;5068116;28;20074;-68
2021/05/04 09:30:36;;;;;;;7.47;1.08;;;16.40;48.30;;;;;;5058910;28;20543;-67
2021/05/04 09:33:09;;;;;;;0.93;0.82;;;16.20;48.30;;;;;;5069747;28;20043;-68
2021/05/04 09:35:35;;;;;;;1.17;0.85;;;16.20;48.20;;;;;;5068594;28;20020;-68
2021/05/04 09:38:10;;;;;;;0.90;0.90;;;16.30;48.30;;;;;;5089191;28;20095;-69
2021/05/04 09:40:37;;;;;;;2.58;1.05;;;16.20;47.50;;;;;;5089072;28;20020;-69
2021/05/04 09:43:13;;;;;;;0.93;0.88;;;16.20;48.10;;;;;;5090339;28;20384;-70
2021/05/04 09:45:56;;;;;;;5.22;1.13;;;16.30;47.70;;;;;;5088004;28;20020;-70
2021/05/04 09:48:24;;;;;;;3.28;1.20;;;16.30;47.60;;;;;;5090216;28;20079;-69
2021/05/04 09:50:57;;;;;;;3.40;1.20;;;16.50;47.20;;;;;;5092882;28;20521;-68
2021/05/04 09:53:42;;;;;;;2.92;1.05;;;16.50;47.40;;;;;;5068444;28;20024;-70
2021/05/04 09:56:10;;;;;;;1.63;1.02;;;16.40;47.30;;;;;;5062390;28;20092;-70
2021/05/04 09:58:43;;;;;;;2.97;1.52;;;16.30;47.20;;;;;;5072230;28;20024;-70
2021/05/04 10:01:15;;;;;;;2.95;0.98;;;16.30;46.80;;;;;;5094198;28;20111;-70
2021/05/04 10:03:43;;;;;;;1.52;1.10;;;16.20;47.00;;;;;;5064134;28;20040;-70
2021/05/04 10:06:12;;;;;;;4.13;0.85;;;16.20;46.60;;;;;;5065947;28;20028;-70
2021/05/04 10:08:39;;;;;;;2.55;1.05;;;16.30;46.60;;;;;;5069917;28;20155;-70
2021/05/04 10:11:08;;;;;;;2.05;0.75;;;16.30;46.00;;;;;;5086549;28;20035;-70
2021/05/04 10:13:36;;;;;;;1.75;1.13;;;16.30;46.20;;;;;;5093311;28;20522;-71
2021/05/04 10:16:03;;;;;;;4.22;0.90;;;16.50;46.60;;;;;;5084991;28;20025;-71
2021/05/04 10:18:30;;;;;;;1.20;0.90;;;16.60;46.50;;;;;;5063350;28;20112;-71
2021/05/04 10:20:58;;;;;;;2.42;0.88;;;16.70;46.10;;;;;;5093104;28;20103;-71
2021/05/04 10:23:25;;;;;;;2.00;1.20;;;16.80;45.90;;;;;;5088769;28;20032;-71
2021/05/04 10:26:01;;;;;;;3.28;1.10;;;16.80;45.40;;;;;;5093283;28;20639;-71
2021/05/04 10:28:35;;;;;;;3.03;0.68;;;16.70;45.00;;;;;;5093175;28;20746;-71
2021/05/04 10:31:06;;;;;;;3.58;0.90;;;16.70;44.90;;;;;;5074386;28;20099;-71
2021/05/04 10:33:39;;;;;;;0.93;0.90;;;16.70;44.90;;;;;;5082924;28;20020;-70
2021/05/04 10:36:06;;;;;;;2.90;1.10;;;16.70;45.20;;;;;;5089504;28;20050;-71
2021/05/04 10:38:53;;;;;;;3.47;1.00;;;16.70;45.50;;;;;;5087253;28;20480;-71
2021/05/04 10:41:23;;;;;;;3.22;0.95;;;16.70;45.20;;;;;;5072063;28;20035;-71
2021/05/04 10:44:07;;;;;;;1.23;0.77;;;16.80;45.80;;;;;;5088589;28;20034;-71
2021/05/04 10:46:35;;;;;;;4.65;1.17;;;16.80;45.00;;;;;;5090795;28;20032;-69
2021/05/04 10:49:02;;;;;;;2.55;0.95;;;16.80;45.50;;;;;;5084829;28;20058;-68
2021/05/04 10:51:50;;;;;;;3.40;1.25;;;16.90;45.00;;;;;;5083112;28;20089;-69
2021/05/04 10:54:23;;;;;;;2.63;0.88;;;16.80;44.00;;;;;;5076280;28;20020;-68
2021/05/04 10:56:57;;;;;;;4.82;1.20;;;16.80;44.90;;;;;;5087818;28;20031;-68
2021/05/04 10:59:25;;;;;;;0.80;0.80;;;16.70;44.20;;;;;;5073384;28;20118;-68
2021/05/04 11:02:17;;;;;;;1.02;0.88;;;16.70;44.50;;;;;;5073599;28;20031;-69
2021/05/04 11:04:45;;;;;;;2.47;0.93;;;16.60;44.20;;;;;;5091296;28;20475;-69
2021/05/04 11:07:12;;;;;;;3.10;1.15;;;16.50;44.30;;;;;;5089965;28;20016;-68
2021/05/04 11:09:40;;;;;;;13.13;1.65;;;16.50;44.80;;;;;;5083431;28;20383;-67
2021/05/04 11:12:07;;;;;;;44.70;4.07;;;16.50;44.80;;;;;;5071458;28;20388;-68
2021/05/04 11:14:39;;;;;;;15.90;1.88;;;16.50;44.50;;;;;;5088907;28;20023;-68
2021/05/04 11:17:10;;;;;;;11.65;2.03;;;16.50;44.40;;;;;;5083241;28;20062;-68
2021/05/04 11:19:39;;;;;;;25.42;2.30;;;16.50;44.00;;;;;;5076707;28;20020;-69
2021/05/04 11:22:15;;;;;;;28.17;3.10;;;16.50;44.60;;;;;;5080187;28;20466;-69
2021/05/04 11:24:46;;;;;;;2.20;1.20;;;16.60;44.50;;;;;;5091737;28;20431;-69
2021/05/04 11:27:12;;;;;;;1.33;0.82;;;16.70;44.70;;;;;;5091374;28;20024;-69
2021/05/04 11:29:42;;;;;;;3.13;1.00;;;16.70;44.90;;;;;;5084374;28;20385;-68
2021/05/04 11:32:07;;;;;;;1.30;1.10;;;16.80;44.80;;;;;;5070687;28;20024;-69
2021/05/04 11:34:40;;;;;;;1.50;0.90;;;16.80;44.50;;;;;;5072429;28;20111;-68
2021/05/04 11:37:29;;;;;;;6.13;1.10;;;16.80;44.50;;;;;;5095315;28;20016;-68
2021/05/04 11:40:14;;;;;;;3.55;1.02;;;16.90;44.20;;;;;;5076011;28;20047;-68
2021/05/04 11:42:49;;;;;;;2.22;0.90;;;16.80;44.10;;;;;;5089059;28;20032;-73
2021/05/04 11:45:29;;;;;;;1.60;0.98;;;16.70;43.90;;;;;;5090450;28;20028;-70
2021/05/04 11:47:57;;;;;;;3.20;1.05;;;16.70;44.60;;;;;;5086963;28;20441;-71
2021/05/04 11:50:30;;;;;;;1.65;1.02;;;16.60;44.40;;;;;;5057255;28;20032;-72
2021/05/04 11:53:00;;;;;;;1.17;1.08;;;16.60;44.30;;;;;;5091258;28;20024;-69
2021/05/04 11:55:30;;;;;;;4.00;1.08;;;16.60;44.20;;;;;;5091786;28;20024;-69
2021/05/04 11:58:01;;;;;;;1.52;0.77;;;16.50;44.60;;;;;;5073477;28;20028;-69
2021/05/04 12:00:29;;;;;;;1.20;0.90;;;16.60;44.60;;;;;;5091181;28;20380;-70
2021/05/04 12:02:55;;;;;;;3.90;1.20;;;16.50;44.20;;;;;;5091985;28;20031;-70
2021/05/04 12:05:31;;;;;;;4.72;1.10;;;16.50;44.70;;;;;;5090908;28;20028;-70
2021/05/04 12:07:58;;;;;;;2.80;0.90;;;16.50;44.40;;;;;;5092199;28;20090;-70
2021/05/04 12:10:37;;;;;;;4.05;1.13;;;16.50;45.00;;;;;;5072483;28;20032;-71
2021/05/04 12:13:05;;;;;;;1.00;0.80;;;16.40;44.70;;;;;;5087041;28;20028;-71
2021/05/04 12:15:40;;;;;;;4.13;0.80;;;16.40;44.80;;;;;;5090809;28;20024;-71
2021/05/04 12:18:17;;;;;;;1.65;0.73;;;16.30;44.90;;;;;;5086417;28;20059;-70
2021/05/04 12:20:49;;;;;;;5.65;0.80;;;16.30;45.10;;;;;;5058356;28;20032;-70
2021/05/04 12:23:24;;;;;;;1.23;0.80;;;16.20;45.10;;;;;;5087545;28;20368;-70
2021/05/04 12:25:53;;;;;;;1.50;1.10;;;16.10;45.40;;;;;;5086505;28;20423;-71
2021/05/04 12:28:27;;;;;;;2.72;0.80;;;16.00;45.70;;;;;;5090771;28;20416;-71
2021/05/04 12:31:04;;;;;;;1.40;0.80;;;15.90;46.10;;;;;;5090839;28;20027;-74
2021/05/04 12:33:30;;;;;;;4.30;0.70;;;15.80;45.90;;;;;;5072757;28;20032;-71
2021/05/04 12:36:08;;;;;;;1.42;0.90;;;15.70;46.40;;;;;;5090096;28;20024;-71
2021/05/04 12:39:17;;;;;;;3.55;1.00;;;15.60;46.90;;;;;;5079186;28;20039;-70
2021/05/04 12:41:39;;;;;;;2.63;0.87;;;15.60;46.50;;;;;;5078543;28;20096;-71
2021/05/04 12:44:10;;;;;;;3.28;1.20;;;15.50;47.00;;;;;;5090481;28;20028;-71
2021/05/04 12:46:56;;;;;;;8.70;1.10;;;15.50;46.70;;;;;;5090247;28;20769;-71
2021/05/04 12:49:37;;;;;;;2.72;1.00;;;15.60;46.40;;;;;;5073172;28;20031;-72
2021/05/04 12:52:07;;;;;;;6.70;1.10;;;15.70;46.70;;;;;;5071841;28;20148;-70
2021/05/04 12:54:35;;;;;;;2.22;0.80;;;15.70;47.00;;;;;;5070970;28;20054;-70
2021/05/04 12:57:16;;;;;;;0.90;0.73;;;15.70;47.10;;;;;;5083352;28;20472;-71